sensor_id;sensor_type;location;lat;lon;timestamp;temperature;humidity
21662;DHT22;10992;48.170;8.596;2022-12-08T00:01:29;-3.80;99.90
21662;DHT22;10992;48.170;8.596;2022-12-08T00:03:57;-3.80;99.90
21662;DHT22;10992;48.170;8.596;2022-12-08T00:06:33;-4.00;99.90
21662;DHT22;10992;48.170;8.596;2022-12-08T00:09:33;-4.00;99.90
21662;DHT22;10992;48.170;8.596;2022-12-08T00:12:13;-4.00;99.90
21662;DHT22;10992;48.170;8.596;2022-12-08T00:14:45;-4.10;99.90
21662;DHT22;10992;48.170;8.596;2022-12-08T00:17:14;-4.20;99.90
21662;DHT22;10992;48.170;8.596;2022-12-08T00:19:41;-4.20;99.90
21662;DHT22;10992;48.170;8.596;2022-12-08T00:22:10;-4.20;99.90
21662;DHT22;10992;48.170;8.596;2022-12-08T00:24:38;-4.20;99.90
21662;DHT22;10992;48.170;8.596;2022-12-08T00:27:07;-4.10;99.90
21662;DHT22;10992;48.170;8.596;2022-12-08T00:29:34;-4.00;99.90
21662;DHT22;10992;48.170;8.596;2022-12-08T00:32:01;-4.00;99.90
21662;DHT22;10992;48.170;8.596;2022-12-08T00:34:29;-4.00;99.90
21662;DHT22;10992;48.170;8.596;2022-12-08T00:36:59;-4.00;99.90
21662;DHT22;10992;48.170;8.596;2022-12-08T00:39:26;-4.00;99.90
21662;DHT22;10992;48.170;8.596;2022-12-08T00:41:53;-4.20;99.90
21662;DHT22;10992;48.170;8.596;2022-12-08T00:44:43;-4.40;99.90
21662;DHT22;10992;48.170;8.596;2022-12-08T00:47:11;-4.50;99.90
21662;DHT22;10992;48.170;8.596;2022-12-08T00:49:38;-4.40;99.90
21662;DHT22;10992;48.170;8.596;2022-12-08T00:52:06;-4.40;99.90
21662;DHT22;10992;48.170;8.596;2022-12-08T00:54:33;-4.30;99.90
21662;DHT22;10992;48.170;8.596;2022-12-08T00:57:00;-4.30;99.90
21662;DHT22;10992;48.170;8.596;2022-12-08T00:59:26;-4.30;99.90
21662;DHT22;10992;48.170;8.596;2022-12-08T01:01:53;-4.30;99.90
21662;DHT22;10992;48.170;8.596;2022-12-08T01:04:20;-4.30;99.90
21662;DHT22;10992;48.170;8.596;2022-12-08T01:06:47;-4.40;99.90
21662;DHT22;10992;48.170;8.596;2022-12-08T01:09:15;-4.50;99.90
21662;DHT22;10992;48.170;8.596;2022-12-08T01:11:43;-4.50;99.90
21662;DHT22;10992;48.170;8.596;2022-12-08T01:14:11;-4.50;99.90
21662;DHT22;10992;48.170;8.596;2022-12-08T01:16:38;-4.50;99.90
21662;DHT22;10992;48.170;8.596;2022-12-08T01:19:09;-4.60;99.90
21662;DHT22;10992;48.170;8.596;2022-12-08T01:21:36;-4.70;99.90
21662;DHT22;10992;48.170;8.596;2022-12-08T01:24:03;-4.70;99.90
21662;DHT22;10992;48.170;8.596;2022-12-08T01:26:30;-4.70;99.90
21662;DHT22;10992;48.170;8.596;2022-12-08T01:28:58;-4.60;99.90
21662;DHT22;10992;48.170;8.596;2022-12-08T01:31:25;-4.40;99.90
21662;DHT22;10992;48.170;8.596;2022-12-08T01:33:52;-4.30;99.90
21662;DHT22;10992;48.170;8.596;2022-12-08T01:36:25;-4.10;99.90
21662;DHT22;10992;48.170;8.596;2022-12-08T01:38:55;-4.10;99.90
21662;DHT22;10992;48.170;8.596;2022-12-08T01:41:24;-4.20;99.90
21662;DHT22;10992;48.170;8.596;2022-12-08T01:46:25;-4.00;99.90
21662;DHT22;10992;48.170;8.596;2022-12-08T01:49:00;-4.00;99.90
21662;DHT22;10992;48.170;8.596;2022-12-08T01:51:29;-4.00;99.90
21662;DHT22;10992;48.170;8.596;2022-12-08T01:53:58;-3.90;99.90
21662;DHT22;10992;48.170;8.596;2022-12-08T01:59:12;-3.80;99.90
21662;DHT22;10992;48.170;8.596;2022-12-08T02:01:39;-3.70;99.90
21662;DHT22;10992;48.170;8.596;2022-12-08T02:04:06;-3.50;99.90
21662;DHT22;10992;48.170;8.596;2022-12-08T02:06:39;-3.50;99.90
21662;DHT22;10992;48.170;8.596;2022-12-08T02:09:08;-3.50;99.90
21662;DHT22;10992;48.170;8.596;2022-12-08T02:11:35;-3.60;99.90
21662;DHT22;10992;48.170;8.596;2022-12-08T02:14:05;-3.50;99.90
21662;DHT22;10992;48.170;8.596;2022-12-08T02:19:53;-3.30;99.90
21662;DHT22;10992;48.170;8.596;2022-12-08T02:22:43;-3.30;99.90
21662;DHT22;10992;48.170;8.596;2022-12-08T02:25:21;-3.30;99.90
21662;DHT22;10992;48.170;8.596;2022-12-08T02:36:24;-3.30;99.90
21662;DHT22;10992;48.170;8.596;2022-12-08T02:47:18;-3.30;99.90
21662;DHT22;10992;48.170;8.596;2022-12-08T02:49:45;-3.40;99.90
21662;DHT22;10992;48.170;8.596;2022-12-08T02:54:42;-3.40;99.90
21662;DHT22;10992;48.170;8.596;2022-12-08T02:57:48;-3.50;99.90
21662;DHT22;10992;48.170;8.596;2022-12-08T03:00:22;-3.60;99.90
21662;DHT22;10992;48.170;8.596;2022-12-08T03:03:14;-3.60;99.90
21662;DHT22;10992;48.170;8.596;2022-12-08T03:06:03;-3.60;99.90
21662;DHT22;10992;48.170;8.596;2022-12-08T03:08:44;-3.50;99.90
21662;DHT22;10992;48.170;8.596;2022-12-08T03:11:46;-3.50;99.90
21662;DHT22;10992;48.170;8.596;2022-12-08T03:14:16;-3.60;99.90
21662;DHT22;10992;48.170;8.596;2022-12-08T03:16:47;-3.50;99.90
21662;DHT22;10992;48.170;8.596;2022-12-08T03:19:22;-3.50;99.90
21662;DHT22;10992;48.170;8.596;2022-12-08T03:21:52;-3.40;99.90
21662;DHT22;10992;48.170;8.596;2022-12-08T03:24:21;-3.30;99.90
21662;DHT22;10992;48.170;8.596;2022-12-08T03:26:56;-3.40;99.90
21662;DHT22;10992;48.170;8.596;2022-12-08T03:29:24;-3.40;99.90
21662;DHT22;10992;48.170;8.596;2022-12-08T03:32:21;-3.40;99.90
21662;DHT22;10992;48.170;8.596;2022-12-08T03:34:50;-3.50;99.90
21662;DHT22;10992;48.170;8.596;2022-12-08T03:37:17;-3.50;99.90
21662;DHT22;10992;48.170;8.596;2022-12-08T03:39:44;-3.60;99.90
21662;DHT22;10992;48.170;8.596;2022-12-08T03:42:10;-3.70;99.90
21662;DHT22;10992;48.170;8.596;2022-12-08T03:44:37;-3.70;99.90
21662;DHT22;10992;48.170;8.596;2022-12-08T03:47:04;-3.70;99.90
21662;DHT22;10992;48.170;8.596;2022-12-08T03:49:31;-3.70;99.90
21662;DHT22;10992;48.170;8.596;2022-12-08T03:51:58;-3.70;99.90
21662;DHT22;10992;48.170;8.596;2022-12-08T03:54:25;-3.70;99.90
21662;DHT22;10992;48.170;8.596;2022-12-08T03:56:52;-3.80;99.90
21662;DHT22;10992;48.170;8.596;2022-12-08T03:59:19;-3.80;99.90
21662;DHT22;10992;48.170;8.596;2022-12-08T04:01:46;-3.40;99.90
21662;DHT22;10992;48.170;8.596;2022-12-08T04:04:13;-3.90;99.90
21662;DHT22;10992;48.170;8.596;2022-12-08T04:06:40;-4.00;99.90
21662;DHT22;10992;48.170;8.596;2022-12-08T04:09:07;-3.80;99.90
21662;DHT22;10992;48.170;8.596;2022-12-08T04:11:34;-3.80;99.90
21662;DHT22;10992;48.170;8.596;2022-12-08T04:14:01;-3.80;99.90
21662;DHT22;10992;48.170;8.596;2022-12-08T04:16:27;-3.70;99.90
21662;DHT22;10992;48.170;8.596;2022-12-08T04:18:54;-3.80;99.90
21662;DHT22;10992;48.170;8.596;2022-12-08T04:21:21;-3.80;99.90
21662;DHT22;10992;48.170;8.596;2022-12-08T04:23:48;-3.70;99.90
21662;DHT22;10992;48.170;8.596;2022-12-08T04:26:15;-3.80;99.90
21662;DHT22;10992;48.170;8.596;2022-12-08T04:28:43;-4.00;99.90
21662;DHT22;10992;48.170;8.596;2022-12-08T04:31:10;-4.10;99.90
21662;DHT22;10992;48.170;8.596;2022-12-08T04:33:37;-4.20;99.90
21662;DHT22;10992;48.170;8.596;2022-12-08T04:36:04;-4.30;99.90
21662;DHT22;10992;48.170;8.596;2022-12-08T04:38:32;-4.30;99.90
21662;DHT22;10992;48.170;8.596;2022-12-08T04:40:59;-4.50;99.90
21662;DHT22;10992;48.170;8.596;2022-12-08T04:43:26;-4.50;99.90
21662;DHT22;10992;48.170;8.596;2022-12-08T04:45:53;-4.40;99.90
21662;DHT22;10992;48.170;8.596;2022-12-08T04:48:20;-4.40;99.90
21662;DHT22;10992;48.170;8.596;2022-12-08T04:50:47;-4.60;99.90
21662;DHT22;10992;48.170;8.596;2022-12-08T04:53:14;-4.30;99.90
21662;DHT22;10992;48.170;8.596;2022-12-08T04:55:42;-4.40;99.90
21662;DHT22;10992;48.170;8.596;2022-12-08T04:58:11;-4.40;99.90
21662;DHT22;10992;48.170;8.596;2022-12-08T05:00:40;-4.60;99.90
21662;DHT22;10992;48.170;8.596;2022-12-08T05:03:07;-4.50;99.90
21662;DHT22;10992;48.170;8.596;2022-12-08T05:05:34;-4.60;99.90
21662;DHT22;10992;48.170;8.596;2022-12-08T05:08:00;-4.60;99.90
21662;DHT22;10992;48.170;8.596;2022-12-08T05:10:28;-4.40;99.90
21662;DHT22;10992;48.170;8.596;2022-12-08T05:12:55;-4.40;99.90
21662;DHT22;10992;48.170;8.596;2022-12-08T05:15:23;-4.60;99.90
21662;DHT22;10992;48.170;8.596;2022-12-08T05:17:50;-4.80;99.90
21662;DHT22;10992;48.170;8.596;2022-12-08T05:20:17;-5.00;99.90
21662;DHT22;10992;48.170;8.596;2022-12-08T05:22:44;-5.10;99.90
21662;DHT22;10992;48.170;8.596;2022-12-08T05:25:10;-5.10;99.90
21662;DHT22;10992;48.170;8.596;2022-12-08T05:27:39;-5.20;99.90
21662;DHT22;10992;48.170;8.596;2022-12-08T05:30:06;-5.30;99.90
21662;DHT22;10992;48.170;8.596;2022-12-08T05:32:33;-5.20;99.90
21662;DHT22;10992;48.170;8.596;2022-12-08T05:35:00;-5.20;99.90
21662;DHT22;10992;48.170;8.596;2022-12-08T05:37:27;-5.10;99.90
21662;DHT22;10992;48.170;8.596;2022-12-08T05:39:54;-5.00;99.90
21662;DHT22;10992;48.170;8.596;2022-12-08T05:42:20;-5.00;99.90
21662;DHT22;10992;48.170;8.596;2022-12-08T05:44:51;-5.20;99.90
21662;DHT22;10992;48.170;8.596;2022-12-08T05:47:18;-5.30;99.90
21662;DHT22;10992;48.170;8.596;2022-12-08T05:49:45;-5.50;99.90
21662;DHT22;10992;48.170;8.596;2022-12-08T05:52:12;-5.50;99.90
21662;DHT22;10992;48.170;8.596;2022-12-08T05:54:38;-5.40;99.90
21662;DHT22;10992;48.170;8.596;2022-12-08T05:57:05;-5.30;99.90
21662;DHT22;10992;48.170;8.596;2022-12-08T05:59:32;-5.30;99.90
21662;DHT22;10992;48.170;8.596;2022-12-08T06:01:59;-5.30;99.90
21662;DHT22;10992;48.170;8.596;2022-12-08T06:04:29;-5.20;99.90
21662;DHT22;10992;48.170;8.596;2022-12-08T06:06:56;-5.30;99.90
21662;DHT22;10992;48.170;8.596;2022-12-08T06:09:23;-5.40;99.90
21662;DHT22;10992;48.170;8.596;2022-12-08T06:11:50;-5.40;99.90
21662;DHT22;10992;48.170;8.596;2022-12-08T06:14:17;-5.00;99.90
21662;DHT22;10992;48.170;8.596;2022-12-08T06:16:44;-5.10;99.90
21662;DHT22;10992;48.170;8.596;2022-12-08T06:19:11;-5.20;99.90
21662;DHT22;10992;48.170;8.596;2022-12-08T06:21:40;-5.20;99.90
21662;DHT22;10992;48.170;8.596;2022-12-08T06:24:07;-5.10;99.90
21662;DHT22;10992;48.170;8.596;2022-12-08T06:26:34;-4.90;99.90
21662;DHT22;10992;48.170;8.596;2022-12-08T06:29:01;-4.90;99.90
21662;DHT22;10992;48.170;8.596;2022-12-08T06:31:30;-4.80;99.90
21662;DHT22;10992;48.170;8.596;2022-12-08T06:34:00;-4.80;99.90
21662;DHT22;10992;48.170;8.596;2022-12-08T06:36:28;-4.80;99.90
21662;DHT22;10992;48.170;8.596;2022-12-08T06:38:55;-4.90;99.90
21662;DHT22;10992;48.170;8.596;2022-12-08T06:41:23;-4.80;99.90
21662;DHT22;10992;48.170;8.596;2022-12-08T06:43:50;-4.70;99.90
21662;DHT22;10992;48.170;8.596;2022-12-08T06:46:18;-4.40;99.90
21662;DHT22;10992;48.170;8.596;2022-12-08T06:48:45;-3.90;99.90
21662;DHT22;10992;48.170;8.596;2022-12-08T06:51:15;-4.10;99.90
21662;DHT22;10992;48.170;8.596;2022-12-08T06:53:43;-4.40;99.90
21662;DHT22;10992;48.170;8.596;2022-12-08T06:56:11;-4.50;99.90
21662;DHT22;10992;48.170;8.596;2022-12-08T06:58:38;-4.60;99.90
21662;DHT22;10992;48.170;8.596;2022-12-08T07:01:07;-4.80;99.90
21662;DHT22;10992;48.170;8.596;2022-12-08T07:03:35;-4.80;99.90
21662;DHT22;10992;48.170;8.596;2022-12-08T07:06:03;-4.90;99.90
21662;DHT22;10992;48.170;8.596;2022-12-08T07:08:31;-4.90;99.90
21662;DHT22;10992;48.170;8.596;2022-12-08T07:10:59;-4.90;99.90
21662;DHT22;10992;48.170;8.596;2022-12-08T07:13:25;-5.00;99.90
21662;DHT22;10992;48.170;8.596;2022-12-08T07:15:52;-5.10;99.90
21662;DHT22;10992;48.170;8.596;2022-12-08T07:18:19;-5.10;99.90
21662;DHT22;10992;48.170;8.596;2022-12-08T07:20:46;-5.20;99.90
21662;DHT22;10992;48.170;8.596;2022-12-08T07:23:13;-5.30;99.90
21662;DHT22;10992;48.170;8.596;2022-12-08T07:25:40;-5.30;99.90
21662;DHT22;10992;48.170;8.596;2022-12-08T07:28:09;-5.20;99.90
21662;DHT22;10992;48.170;8.596;2022-12-08T07:30:37;-5.10;99.90
21662;DHT22;10992;48.170;8.596;2022-12-08T07:33:04;-5.10;99.90
21662;DHT22;10992;48.170;8.596;2022-12-08T07:35:32;-4.70;99.90
21662;DHT22;10992;48.170;8.596;2022-12-08T07:38:01;-4.50;99.90
21662;DHT22;10992;48.170;8.596;2022-12-08T07:40:28;-4.50;99.90
21662;DHT22;10992;48.170;8.596;2022-12-08T07:42:55;-4.40;99.90
21662;DHT22;10992;48.170;8.596;2022-12-08T07:45:21;-4.20;99.90
21662;DHT22;10992;48.170;8.596;2022-12-08T07:47:57;-4.10;99.90
21662;DHT22;10992;48.170;8.596;2022-12-08T07:50:24;-3.70;99.90
21662;DHT22;10992;48.170;8.596;2022-12-08T07:52:50;-3.10;99.90
21662;DHT22;10992;48.170;8.596;2022-12-08T07:55:17;-2.40;99.90
21662;DHT22;10992;48.170;8.596;2022-12-08T07:57:44;-1.60;99.90
21662;DHT22;10992;48.170;8.596;2022-12-08T08:00:11;-1.60;99.90
21662;DHT22;10992;48.170;8.596;2022-12-08T08:02:38;-1.40;99.90
21662;DHT22;10992;48.170;8.596;2022-12-08T08:05:06;-1.80;99.90
21662;DHT22;10992;48.170;8.596;2022-12-08T08:07:33;-1.60;99.90
21662;DHT22;10992;48.170;8.596;2022-12-08T08:10:01;-1.80;99.90
21662;DHT22;10992;48.170;8.596;2022-12-08T08:12:28;-2.10;99.90
21662;DHT22;10992;48.170;8.596;2022-12-08T08:14:58;-2.30;99.90
21662;DHT22;10992;48.170;8.596;2022-12-08T08:17:25;-2.50;99.90
21662;DHT22;10992;48.170;8.596;2022-12-08T08:19:52;-2.70;99.90
21662;DHT22;10992;48.170;8.596;2022-12-08T08:22:19;-2.80;99.90
21662;DHT22;10992;48.170;8.596;2022-12-08T08:24:46;-2.70;99.90
21662;DHT22;10992;48.170;8.596;2022-12-08T08:27:13;-2.70;99.90
21662;DHT22;10992;48.170;8.596;2022-12-08T08:29:40;-2.60;99.90
21662;DHT22;10992;48.170;8.596;2022-12-08T08:32:07;-2.60;99.90
21662;DHT22;10992;48.170;8.596;2022-12-08T08:34:33;-2.40;99.90
21662;DHT22;10992;48.170;8.596;2022-12-08T08:37:01;-2.30;99.90
21662;DHT22;10992;48.170;8.596;2022-12-08T08:39:28;-2.30;99.90
21662;DHT22;10992;48.170;8.596;2022-12-08T08:41:56;-2.20;99.90
21662;DHT22;10992;48.170;8.596;2022-12-08T08:44:23;-2.20;99.90
21662;DHT22;10992;48.170;8.596;2022-12-08T08:46:49;-2.10;99.90
21662;DHT22;10992;48.170;8.596;2022-12-08T08:49:16;-2.10;99.90
21662;DHT22;10992;48.170;8.596;2022-12-08T08:51:44;-2.10;99.90
21662;DHT22;10992;48.170;8.596;2022-12-08T08:54:11;-1.90;99.90
21662;DHT22;10992;48.170;8.596;2022-12-08T08:56:38;-1.80;99.90
21662;DHT22;10992;48.170;8.596;2022-12-08T08:59:05;-1.70;99.90
21662;DHT22;10992;48.170;8.596;2022-12-08T09:01:33;-1.50;99.90
21662;DHT22;10992;48.170;8.596;2022-12-08T09:04:00;-1.50;99.90
21662;DHT22;10992;48.170;8.596;2022-12-08T09:06:27;-1.50;99.90
21662;DHT22;10992;48.170;8.596;2022-12-08T09:08:54;-1.50;99.90
21662;DHT22;10992;48.170;8.596;2022-12-08T09:11:22;-1.40;99.90
21662;DHT22;10992;48.170;8.596;2022-12-08T09:13:50;-1.20;99.90
21662;DHT22;10992;48.170;8.596;2022-12-08T09:16:18;-1.00;99.90
21662;DHT22;10992;48.170;8.596;2022-12-08T09:18:45;-1.00;99.90
21662;DHT22;10992;48.170;8.596;2022-12-08T09:21:13;-0.90;99.90
21662;DHT22;10992;48.170;8.596;2022-12-08T09:23:45;-0.80;99.90
21662;DHT22;10992;48.170;8.596;2022-12-08T09:26:12;-0.80;99.90
21662;DHT22;10992;48.170;8.596;2022-12-08T09:28:39;-0.70;99.90
21662;DHT22;10992;48.170;8.596;2022-12-08T09:31:13;-0.70;99.90
21662;DHT22;10992;48.170;8.596;2022-12-08T09:33:41;-0.70;99.90
21662;DHT22;10992;48.170;8.596;2022-12-08T09:36:08;-0.70;99.90
21662;DHT22;10992;48.170;8.596;2022-12-08T09:38:36;-0.60;99.90
21662;DHT22;10992;48.170;8.596;2022-12-08T09:41:13;-0.70;99.90
21662;DHT22;10992;48.170;8.596;2022-12-08T09:44:01;-0.80;99.90
21662;DHT22;10992;48.170;8.596;2022-12-08T09:46:32;-0.80;99.90
21662;DHT22;10992;48.170;8.596;2022-12-08T09:49:01;-0.80;99.90
21662;DHT22;10992;48.170;8.596;2022-12-08T09:51:37;-0.60;99.90
21662;DHT22;10992;48.170;8.596;2022-12-08T09:54:10;-0.30;99.90
21662;DHT22;10992;48.170;8.596;2022-12-08T09:56:40;-0.20;99.90
21662;DHT22;10992;48.170;8.596;2022-12-08T10:01:36;0.00;99.90
21662;DHT22;10992;48.170;8.596;2022-12-08T10:04:27;0.10;99.90
21662;DHT22;10992;48.170;8.596;2022-12-08T10:07:17;0.00;99.90
21662;DHT22;10992;48.170;8.596;2022-12-08T10:12:47;0.10;99.90
21662;DHT22;10992;48.170;8.596;2022-12-08T10:15:46;0.20;99.90
21662;DHT22;10992;48.170;8.596;2022-12-08T10:18:18;0.40;99.90
21662;DHT22;10992;48.170;8.596;2022-12-08T10:20:47;0.50;99.90
21662;DHT22;10992;48.170;8.596;2022-12-08T10:23:19;0.60;99.90
21662;DHT22;10992;48.170;8.596;2022-12-08T10:25:49;0.80;99.90
21662;DHT22;10992;48.170;8.596;2022-12-08T10:28:17;0.70;99.90
21662;DHT22;10992;48.170;8.596;2022-12-08T10:30:44;1.00;99.90
21662;DHT22;10992;48.170;8.596;2022-12-08T10:33:20;0.80;99.90
21662;DHT22;10992;48.170;8.596;2022-12-08T10:35:58;0.80;99.90
21662;DHT22;10992;48.170;8.596;2022-12-08T10:38:30;0.90;99.90
21662;DHT22;10992;48.170;8.596;2022-12-08T10:43:53;1.00;99.90
21662;DHT22;10992;48.170;8.596;2022-12-08T10:46:23;1.00;99.90
21662;DHT22;10992;48.170;8.596;2022-12-08T10:49:10;1.30;99.90
21662;DHT22;10992;48.170;8.596;2022-12-08T10:51:40;1.50;99.90
21662;DHT22;10992;48.170;8.596;2022-12-08T10:54:31;1.80;99.90
21662;DHT22;10992;48.170;8.596;2022-12-08T10:56:59;2.70;99.90
21662;DHT22;10992;48.170;8.596;2022-12-08T10:59:26;2.90;99.90
21662;DHT22;10992;48.170;8.596;2022-12-08T11:01:54;3.00;99.90
21662;DHT22;10992;48.170;8.596;2022-12-08T11:04:33;2.80;99.90
21662;DHT22;10992;48.170;8.596;2022-12-08T11:07:04;2.10;99.90
21662;DHT22;10992;48.170;8.596;2022-12-08T11:09:47;2.20;99.90
21662;DHT22;10992;48.170;8.596;2022-12-08T11:12:20;2.50;99.90
21662;DHT22;10992;48.170;8.596;2022-12-08T11:14:56;2.80;99.90
21662;DHT22;10992;48.170;8.596;2022-12-08T11:17:28;2.80;99.90
21662;DHT22;10992;48.170;8.596;2022-12-08T11:22:34;3.10;99.90
21662;DHT22;10992;48.170;8.596;2022-12-08T11:25:24;3.40;99.90
21662;DHT22;10992;48.170;8.596;2022-12-08T11:27:59;3.70;99.90
21662;DHT22;10992;48.170;8.596;2022-12-08T11:30:30;3.70;99.90
21662;DHT22;10992;48.170;8.596;2022-12-08T11:33:21;3.90;99.90
21662;DHT22;10992;48.170;8.596;2022-12-08T11:35:54;3.50;99.90
21662;DHT22;10992;48.170;8.596;2022-12-08T11:38:24;2.90;99.90
21662;DHT22;10992;48.170;8.596;2022-12-08T11:41:04;2.60;99.90
21662;DHT22;10992;48.170;8.596;2022-12-08T11:44:38;2.80;99.90
21662;DHT22;10992;48.170;8.596;2022-12-08T11:46:54;2.50;99.90
21662;DHT22;10992;48.170;8.596;2022-12-08T11:49:33;2.60;99.90
21662;DHT22;10992;48.170;8.596;2022-12-08T11:57:29;2.30;99.90
21662;DHT22;10992;48.170;8.596;2022-12-08T11:59:57;2.40;99.90
21662;DHT22;10992;48.170;8.596;2022-12-08T12:02:30;2.10;99.90
21662;DHT22;10992;48.170;8.596;2022-12-08T12:05:29;1.90;99.90
21662;DHT22;10992;48.170;8.596;2022-12-08T12:13:30;1.70;99.90
21662;DHT22;10992;48.170;8.596;2022-12-08T12:23:57;1.10;99.90
21662;DHT22;10992;48.170;8.596;2022-12-08T12:26:47;0.90;99.90
21662;DHT22;10992;48.170;8.596;2022-12-08T12:29:18;1.10;99.90
21662;DHT22;10992;48.170;8.596;2022-12-08T12:31:58;1.10;99.90
21662;DHT22;10992;48.170;8.596;2022-12-08T12:34:33;1.10;99.90
21662;DHT22;10992;48.170;8.596;2022-12-08T12:42:40;1.20;99.90
21662;DHT22;10992;48.170;8.596;2022-12-08T12:56:01;1.20;99.90
21662;DHT22;10992;48.170;8.596;2022-12-08T13:03:50;1.10;99.90
21662;DHT22;10992;48.170;8.596;2022-12-08T13:06:43;1.20;99.90
21662;DHT22;10992;48.170;8.596;2022-12-08T13:09:21;1.10;99.90
21662;DHT22;10992;48.170;8.596;2022-12-08T13:11:52;0.90;99.90
21662;DHT22;10992;48.170;8.596;2022-12-08T13:16:58;0.70;99.90
21662;DHT22;10992;48.170;8.596;2022-12-08T13:19:29;0.60;99.90
21662;DHT22;10992;48.170;8.596;2022-12-08T13:21:56;0.60;99.90
21662;DHT22;10992;48.170;8.596;2022-12-08T13:29:34;0.80;99.90
21662;DHT22;10992;48.170;8.596;2022-12-08T13:35:14;0.70;99.90
21662;DHT22;10992;48.170;8.596;2022-12-08T13:37:46;0.60;99.90
21662;DHT22;10992;48.170;8.596;2022-12-08T13:40:23;0.50;99.90
21662;DHT22;10992;48.170;8.596;2022-12-08T13:45:39;0.60;99.90
21662;DHT22;10992;48.170;8.596;2022-12-08T13:48:46;0.80;99.90
21662;DHT22;10992;48.170;8.596;2022-12-08T13:51:53;0.90;99.90
21662;DHT22;10992;48.170;8.596;2022-12-08T13:54:41;1.00;99.90
21662;DHT22;10992;48.170;8.596;2022-12-08T13:57:33;0.80;99.90
21662;DHT22;10992;48.170;8.596;2022-12-08T14:00:14;0.80;99.90
21662;DHT22;10992;48.170;8.596;2022-12-08T14:02:44;0.80;99.90
21662;DHT22;10992;48.170;8.596;2022-12-08T14:05:16;0.80;99.90
21662;DHT22;10992;48.170;8.596;2022-12-08T14:07:52;0.80;99.90
21662;DHT22;10992;48.170;8.596;2022-12-08T14:10:23;0.70;99.90
21662;DHT22;10992;48.170;8.596;2022-12-08T14:13:05;0.60;99.90
21662;DHT22;10992;48.170;8.596;2022-12-08T14:15:38;0.80;99.90
21662;DHT22;10992;48.170;8.596;2022-12-08T14:18:18;0.80;99.90
21662;DHT22;10992;48.170;8.596;2022-12-08T14:21:11;0.80;99.90
21662;DHT22;10992;48.170;8.596;2022-12-08T14:23:47;0.80;99.90
21662;DHT22;10992;48.170;8.596;2022-12-08T14:26:14;0.60;99.90
21662;DHT22;10992;48.170;8.596;2022-12-08T14:28:41;0.30;99.90
21662;DHT22;10992;48.170;8.596;2022-12-08T14:31:11;0.30;99.90
21662;DHT22;10992;48.170;8.596;2022-12-08T14:33:40;0.30;99.90
21662;DHT22;10992;48.170;8.596;2022-12-08T14:36:08;0.20;99.90
21662;DHT22;10992;48.170;8.596;2022-12-08T14:38:35;0.20;99.90
21662;DHT22;10992;48.170;8.596;2022-12-08T14:41:07;0.10;99.90
21662;DHT22;10992;48.170;8.596;2022-12-08T14:43:34;0.10;99.90
21662;DHT22;10992;48.170;8.596;2022-12-08T14:46:04;0.10;99.90
21662;DHT22;10992;48.170;8.596;2022-12-08T14:48:44;0.20;99.90
21662;DHT22;10992;48.170;8.596;2022-12-08T14:51:17;0.30;99.90
21662;DHT22;10992;48.170;8.596;2022-12-08T14:54:07;0.20;99.90
21662;DHT22;10992;48.170;8.596;2022-12-08T14:56:36;0.20;99.90
21662;DHT22;10992;48.170;8.596;2022-12-08T14:59:14;0.00;99.90
21662;DHT22;10992;48.170;8.596;2022-12-08T15:01:44;0.00;99.90
21662;DHT22;10992;48.170;8.596;2022-12-08T15:06:58;-0.30;99.90
21662;DHT22;10992;48.170;8.596;2022-12-08T15:09:38;-0.30;99.90
21662;DHT22;10992;48.170;8.596;2022-12-08T15:14:42;-0.50;99.90
21662;DHT22;10992;48.170;8.596;2022-12-08T15:17:39;-0.50;99.90
21662;DHT22;10992;48.170;8.596;2022-12-08T15:23:01;-0.60;99.90
21662;DHT22;10992;48.170;8.596;2022-12-08T15:25:28;-0.60;99.90
21662;DHT22;10992;48.170;8.596;2022-12-08T15:27:55;-0.50;99.90
21662;DHT22;10992;48.170;8.596;2022-12-08T15:30:23;-0.40;99.90
21662;DHT22;10992;48.170;8.596;2022-12-08T15:32:54;-0.40;99.90
21662;DHT22;10992;48.170;8.596;2022-12-08T15:35:22;-0.50;99.90
21662;DHT22;10992;48.170;8.596;2022-12-08T15:37:49;-0.50;99.90
21662;DHT22;10992;48.170;8.596;2022-12-08T15:40:19;-0.40;99.90
21662;DHT22;10992;48.170;8.596;2022-12-08T15:42:47;-0.50;99.90
21662;DHT22;10992;48.170;8.596;2022-12-08T15:45:15;-0.60;99.90
21662;DHT22;10992;48.170;8.596;2022-12-08T15:47:43;-0.60;99.90
21662;DHT22;10992;48.170;8.596;2022-12-08T15:50:17;-0.60;99.90
21662;DHT22;10992;48.170;8.596;2022-12-08T15:52:44;-0.60;99.90
21662;DHT22;10992;48.170;8.596;2022-12-08T15:55:14;-0.60;99.90
21662;DHT22;10992;48.170;8.596;2022-12-08T15:57:44;-0.70;99.90
21662;DHT22;10992;48.170;8.596;2022-12-08T16:00:34;-0.80;99.90
21662;DHT22;10992;48.170;8.596;2022-12-08T16:03:26;-0.90;99.90
21662;DHT22;10992;48.170;8.596;2022-12-08T16:06:20;-0.90;99.90
21662;DHT22;10992;48.170;8.596;2022-12-08T16:09:25;-1.00;99.90
21662;DHT22;10992;48.170;8.596;2022-12-08T16:11:54;-1.00;99.90
21662;DHT22;10992;48.170;8.596;2022-12-08T16:15:19;-1.10;99.90
21662;DHT22;10992;48.170;8.596;2022-12-08T16:18:12;-1.10;99.90
21662;DHT22;10992;48.170;8.596;2022-12-08T16:20:41;-1.20;99.90
21662;DHT22;10992;48.170;8.596;2022-12-08T16:23:28;-1.30;99.90
21662;DHT22;10992;48.170;8.596;2022-12-08T16:26:18;-1.40;99.90
21662;DHT22;10992;48.170;8.596;2022-12-08T16:29:06;-1.40;99.90
21662;DHT22;10992;48.170;8.596;2022-12-08T16:31:33;-1.00;99.90
21662;DHT22;10992;48.170;8.596;2022-12-08T16:34:00;-0.90;99.90
21662;DHT22;10992;48.170;8.596;2022-12-08T16:36:27;-0.90;99.90
21662;DHT22;10992;48.170;8.596;2022-12-08T16:38:54;-0.90;99.90
21662;DHT22;10992;48.170;8.596;2022-12-08T16:41:21;-0.90;99.90
21662;DHT22;10992;48.170;8.596;2022-12-08T16:44:06;-0.90;99.90
21662;DHT22;10992;48.170;8.596;2022-12-08T16:46:33;-1.10;99.90
21662;DHT22;10992;48.170;8.596;2022-12-08T16:49:02;-1.20;99.90
21662;DHT22;10992;48.170;8.596;2022-12-08T16:51:29;-1.20;99.90
21662;DHT22;10992;48.170;8.596;2022-12-08T16:53:56;-1.30;99.90
21662;DHT22;10992;48.170;8.596;2022-12-08T16:56:24;-1.40;99.90
21662;DHT22;10992;48.170;8.596;2022-12-08T16:58:59;-1.50;99.90
21662;DHT22;10992;48.170;8.596;2022-12-08T17:01:26;-1.60;99.90
21662;DHT22;10992;48.170;8.596;2022-12-08T17:03:53;-1.80;99.90
21662;DHT22;10992;48.170;8.596;2022-12-08T17:06:40;-2.00;99.90
21662;DHT22;10992;48.170;8.596;2022-12-08T17:09:07;-2.20;99.90
21662;DHT22;10992;48.170;8.596;2022-12-08T17:11:34;-2.30;99.90
21662;DHT22;10992;48.170;8.596;2022-12-08T17:14:09;-2.50;99.90
21662;DHT22;10992;48.170;8.596;2022-12-08T17:16:36;-2.50;99.90
21662;DHT22;10992;48.170;8.596;2022-12-08T17:19:04;-2.50;99.90
21662;DHT22;10992;48.170;8.596;2022-12-08T17:21:31;-2.60;99.90
21662;DHT22;10992;48.170;8.596;2022-12-08T17:23:58;-2.70;99.90
21662;DHT22;10992;48.170;8.596;2022-12-08T17:26:25;-2.70;99.90
21662;DHT22;10992;48.170;8.596;2022-12-08T17:28:52;-2.60;99.90
21662;DHT22;10992;48.170;8.596;2022-12-08T17:31:27;-2.60;99.90
21662;DHT22;10992;48.170;8.596;2022-12-08T17:34:01;-2.70;99.90
21662;DHT22;10992;48.170;8.596;2022-12-08T17:36:28;-2.70;99.90
21662;DHT22;10992;48.170;8.596;2022-12-08T17:38:58;-2.70;99.90
21662;DHT22;10992;48.170;8.596;2022-12-08T17:41:26;-2.90;99.90
21662;DHT22;10992;48.170;8.596;2022-12-08T17:43:53;-3.00;99.90